createdAt,value
2023-01-11T00:01:28.305Z,9.25
2023-01-11T00:03:56.989Z,8.35
2023-01-11T00:06:25.793Z,9.63
2023-01-11T00:08:54.654Z,13.65
2023-01-11T00:11:23.687Z,8.95
2023-01-11T00:13:52.299Z,10.35
2023-01-11T00:16:21.173Z,9.38
2023-01-11T00:18:49.985Z,8.98
2023-01-11T00:21:18.730Z,10.63
2023-01-11T00:23:51.454Z,10.18
2023-01-11T00:26:20.351Z,10.60
2023-01-11T00:28:51.146Z,8.98
2023-01-11T00:31:20.034Z,7.53
2023-01-11T00:33:48.809Z,21.95
2023-01-11T00:36:17.533Z,5.68
2023-01-11T00:38:52.392Z,5.70
2023-01-11T00:41:42.186Z,5.90
2023-01-11T00:44:31.908Z,6.40
2023-01-11T00:47:20.237Z,5.85
2023-01-11T00:49:49.092Z,4.80
2023-01-11T00:52:17.808Z,5.70
2023-01-11T00:54:46.542Z,3.50
2023-01-11T00:57:15.382Z,4.82
2023-01-11T00:59:44.203Z,3.80
2023-01-11T01:02:13.987Z,3.35
2023-01-11T01:04:43.022Z,3.45
2023-01-11T01:07:12.676Z,3.80
2023-01-11T01:09:41.566Z,4.50
2023-01-11T01:12:10.658Z,3.85
2023-01-11T01:14:39.548Z,3.95
2023-01-11T01:17:10.273Z,4.18
2023-01-11T01:19:40.427Z,4.22
2023-01-11T01:22:09.189Z,4.50
2023-01-11T01:24:37.991Z,5.43
2023-01-11T01:27:07.079Z,4.47
2023-01-11T01:29:35.874Z,6.28
2023-01-11T01:32:04.656Z,4.60
2023-01-11T01:34:33.515Z,3.95
2023-01-11T01:37:02.282Z,4.10
2023-01-11T01:39:31.114Z,4.80
2023-01-11T01:42:00.312Z,4.75
2023-01-11T01:44:55.355Z,4.32
2023-01-11T01:47:31.191Z,4.90
2023-01-11T01:50:03.908Z,5.97
2023-01-11T01:52:34.630Z,4.13
2023-01-11T01:55:08.830Z,3.50
2023-01-11T01:57:40.845Z,36.33
2023-01-11T02:00:11.391Z,3.53
2023-01-11T02:02:42.343Z,3.67
2023-01-11T02:05:12.872Z,4.90
2023-01-11T02:07:44.428Z,4.65
2023-01-11T02:10:17.952Z,5.63
2023-01-11T02:12:53.033Z,4.68
2023-01-11T02:15:23.633Z,4.40
2023-01-11T02:17:52.738Z,4.15
2023-01-11T02:21:00.702Z,6.57
2023-01-11T02:23:53.270Z,3.10
2023-01-11T02:26:42.263Z,3.63
2023-01-11T02:29:26.434Z,5.03
2023-01-11T02:32:01.740Z,5.30
2023-01-11T02:34:43.335Z,4.82
2023-01-11T02:37:32.152Z,3.70
2023-01-11T02:40:17.423Z,3.33
2023-01-11T02:43:17.203Z,4.00
2023-01-11T02:45:47.789Z,2.90
2023-01-11T02:48:20.556Z,3.47
2023-01-11T02:51:12.498Z,3.15
2023-01-11T02:53:46.446Z,4.18
2023-01-11T02:56:26.069Z,3.92
2023-01-11T02:58:58.905Z,3.28
2023-01-11T03:01:27.785Z,2.85
2023-01-11T03:03:57.436Z,2.97
2023-01-11T03:06:36.451Z,3.70
2023-01-11T03:09:25.307Z,3.20
2023-01-11T03:12:37.594Z,2.88
2023-01-11T03:15:33.907Z,2.50
2023-01-11T03:18:08.087Z,2.45
2023-01-11T03:20:41.734Z,2.92
2023-01-11T03:23:49.721Z,2.83
2023-01-11T03:26:31.116Z,2.63
2023-01-11T03:29:20.958Z,3.45
2023-01-11T03:32:10.993Z,3.65
2023-01-11T03:34:44.143Z,2.00
2023-01-11T03:37:16.271Z,2.08
2023-01-11T03:39:53.300Z,2.40
2023-01-11T03:42:24.821Z,2.10
2023-01-11T03:44:57.208Z,2.20
2023-01-11T03:47:30.937Z,2.83
2023-01-11T03:50:06.254Z,2.15
2023-01-11T03:52:39.581Z,2.80
2023-01-11T03:55:11.984Z,2.13
2023-01-11T03:57:52.265Z,3.80
2023-01-11T04:00:24.127Z,2.88
2023-01-11T04:02:55.601Z,2.65
2023-01-11T04:05:28.043Z,5.63
2023-01-11T04:07:57.629Z,2.63
2023-01-11T04:10:26.570Z,2.97
2023-01-11T04:12:55.480Z,2.50
2023-01-11T04:15:24.339Z,2.67
2023-01-11T04:17:53.894Z,2.28
2023-01-11T04:20:23.078Z,1.67
2023-01-11T04:22:51.897Z,2.63
2023-01-11T04:25:20.724Z,2.28
2023-01-11T04:27:49.738Z,1.77
2023-01-11T04:30:19.036Z,1.67
2023-01-11T04:32:48.067Z,2.40
2023-01-11T04:35:17.868Z,2.72
2023-01-11T04:37:46.763Z,2.38
2023-01-11T04:40:16.304Z,2.22
2023-01-11T04:42:47.448Z,2.70
2023-01-11T04:45:16.555Z,2.75
2023-01-11T04:47:45.710Z,2.17
2023-01-11T04:50:14.759Z,1.90
2023-01-11T04:52:43.631Z,2.65
2023-01-11T04:55:12.526Z,2.22
2023-01-11T04:57:41.430Z,2.83
2023-01-11T05:00:12.056Z,4.65
2023-01-11T05:02:41.971Z,2.70
2023-01-11T05:05:13.283Z,2.00
2023-01-11T05:07:42.112Z,2.30
2023-01-11T05:10:12.015Z,2.85
2023-01-11T05:12:41.144Z,2.10
2023-01-11T05:15:10.878Z,2.20
2023-01-11T05:17:39.703Z,2.33
2023-01-11T05:20:09.345Z,2.35
2023-01-11T05:22:42.314Z,2.35
2023-01-11T05:25:11.221Z,2.00
2023-01-11T05:27:40.245Z,2.40
2023-01-11T05:30:10.142Z,2.00
2023-01-11T05:32:38.972Z,2.15
2023-01-11T05:35:11.084Z,2.38
2023-01-11T05:37:40.436Z,2.10
2023-01-11T05:40:09.848Z,1.70
2023-01-11T05:42:38.672Z,2.50
2023-01-11T05:45:27.681Z,2.67
2023-01-11T05:47:56.738Z,1.73
2023-01-11T05:50:26.212Z,1.27
2023-01-11T05:52:55.030Z,1.38
2023-01-11T05:55:23.681Z,2.80
2023-01-11T05:57:53.012Z,2.25
2023-01-11T06:00:22.170Z,1.33
2023-01-11T06:02:51.240Z,1.65
2023-01-11T06:05:20.170Z,1.20
2023-01-11T06:07:48.869Z,1.67
2023-01-11T06:10:17.999Z,1.50
2023-01-11T06:12:47.028Z,1.63
2023-01-11T06:15:15.941Z,1.35
2023-01-11T06:17:44.706Z,1.60
2023-01-11T06:20:13.964Z,2.97
2023-01-11T06:22:42.688Z,2.53
2023-01-11T06:25:11.725Z,2.55
2023-01-11T06:27:40.624Z,1.90
2023-01-11T06:30:09.921Z,1.50
2023-01-11T06:32:38.782Z,1.27
2023-01-11T06:35:08.161Z,1.52
2023-01-11T06:37:36.978Z,0.90
2023-01-11T06:40:06.121Z,1.80
2023-01-11T06:42:34.916Z,3.83
2023-01-11T06:45:03.793Z,2.72
2023-01-11T06:47:32.726Z,2.15
2023-01-11T06:50:01.517Z,1.67
2023-01-11T06:52:30.346Z,1.10
2023-01-11T06:54:59.759Z,1.95
2023-01-11T06:57:29.547Z,2.17
2023-01-11T06:59:58.587Z,1.75
2023-01-11T07:02:27.543Z,1.70
2023-01-11T07:04:58.794Z,1.67
2023-01-11T07:07:27.652Z,1.90
2023-01-11T07:09:57.226Z,2.05
2023-01-11T07:12:26.235Z,3.20
2023-01-11T07:14:55.073Z,1.02
2023-01-11T07:17:23.789Z,1.17
2023-01-11T07:19:52.523Z,1.80
2023-01-11T07:22:23.628Z,3.70
2023-01-11T07:24:54.295Z,0.77
2023-01-11T07:27:23.730Z,1.35
2023-01-11T07:29:54.500Z,1.58
2023-01-11T07:32:23.394Z,0.90
2023-01-11T07:34:52.211Z,1.27
2023-01-11T07:37:28.828Z,1.10
2023-01-11T07:39:58.529Z,1.02
2023-01-11T07:42:47.007Z,1.23
2023-01-11T07:45:16.592Z,1.55
2023-01-11T07:47:45.599Z,2.13
2023-01-11T07:50:14.310Z,2.47
2023-01-11T07:52:49.589Z,1.48
2023-01-11T07:55:18.725Z,1.10
2023-01-11T07:57:47.463Z,1.67
2023-01-11T08:00:17.129Z,1.30
2023-01-11T08:02:45.989Z,0.98
2023-01-11T08:05:14.658Z,1.17
2023-01-11T08:07:43.924Z,1.30
2023-01-11T08:10:13.024Z,1.70
2023-01-11T08:13:06.357Z,2.17
2023-01-11T08:15:38.356Z,1.85
2023-01-11T08:18:08.813Z,1.50
2023-01-11T08:20:37.708Z,1.40
2023-01-11T08:23:08.339Z,1.00
2023-01-11T08:25:37.569Z,1.50
2023-01-11T08:28:08.731Z,1.95
2023-01-11T08:30:38.971Z,2.75
2023-01-11T08:33:07.809Z,2.35
2023-01-11T08:35:40.711Z,1.73
2023-01-11T08:38:09.511Z,1.15
2023-01-11T08:40:38.368Z,1.90
2023-01-11T08:43:07.279Z,1.50
2023-01-11T08:45:36.024Z,1.90
2023-01-11T08:48:04.858Z,2.00
2023-01-11T08:50:33.788Z,2.00
2023-01-11T08:53:02.594Z,1.67
2023-01-11T08:55:32.110Z,2.55
2023-01-11T08:58:00.838Z,1.35
2023-01-11T09:00:29.680Z,1.30
2023-01-11T09:03:01.439Z,5.00
2023-01-11T09:05:30.296Z,1.25
2023-01-11T09:07:59.237Z,3.90
2023-01-11T09:10:28.235Z,1.60
2023-01-11T09:12:57.275Z,1.33
2023-01-11T09:15:27.584Z,1.40
2023-01-11T09:17:56.341Z,1.33
2023-01-11T09:20:25.131Z,2.92
2023-01-11T09:22:54.808Z,1.33
2023-01-11T09:25:23.806Z,2.38
2023-01-11T09:27:53.722Z,3.17
2023-01-11T09:30:24.749Z,8.05
2023-01-11T09:32:55.503Z,5.32
2023-01-11T09:35:24.513Z,5.70
2023-01-11T09:37:57.131Z,2.58
2023-01-11T09:40:39.622Z,2.13
2023-01-11T09:43:15.948Z,1.85
2023-01-11T09:45:47.851Z,1.55
2023-01-11T09:48:29.593Z,1.30
2023-01-11T09:50:58.761Z,2.67
2023-01-11T09:53:35.946Z,1.63
2023-01-11T09:56:07.421Z,4.65
2023-01-11T09:59:01.297Z,3.67
2023-01-11T10:01:51.834Z,3.00
2023-01-11T10:04:53.977Z,0.80
2023-01-11T10:07:31.390Z,2.33
2023-01-11T10:18:41.585Z,0.93
2023-01-11T10:19:48.872Z,1.10
2023-01-11T10:22:24.833Z,0.70
2023-01-11T10:25:02.557Z,4.03
2023-01-11T10:27:41.324Z,0.93
2023-01-11T10:30:41.961Z,1.23
2023-01-11T10:33:39.937Z,1.90
2023-01-11T10:36:47.292Z,1.42
2023-01-11T10:39:24.029Z,3.28
2023-01-11T10:42:06.741Z,3.28
2023-01-11T10:44:40.575Z,4.75
2023-01-11T10:47:19.412Z,4.85
2023-01-11T10:50:13.697Z,4.25
2023-01-11T10:52:53.074Z,3.90
2023-01-11T10:55:46.398Z,3.80
2023-01-11T10:58:23.505Z,3.08
2023-01-11T11:01:09.592Z,3.00
2023-01-11T11:04:01.892Z,2.97
2023-01-11T11:06:34.526Z,3.28
2023-01-11T11:09:09.188Z,3.28
2023-01-11T11:11:45.949Z,3.25
2023-01-11T11:14:38.905Z,4.07
2023-01-11T11:17:36.757Z,4.35
2023-01-11T11:20:27.090Z,6.10
2023-01-11T11:22:57.778Z,8.43
2023-01-11T11:25:31.396Z,8.98
2023-01-11T11:28:29.386Z,5.57
2023-01-11T11:31:02.658Z,3.72
2023-01-11T11:33:36.513Z,2.47
2023-01-11T11:36:08.915Z,2.35
2023-01-11T11:38:39.919Z,3.67
2023-01-11T11:41:13.372Z,2.65
2023-01-11T11:43:45.292Z,2.50
2023-01-11T11:46:24.121Z,3.00
2023-01-11T11:49:17.046Z,3.15
2023-01-11T11:51:48.507Z,3.00
2023-01-11T11:54:27.107Z,3.92
2023-01-11T11:56:57.938Z,4.22
2023-01-11T11:59:30.963Z,6.97
2023-01-11T12:04:48.327Z,9.15
2023-01-11T12:07:21.345Z,5.75
2023-01-11T12:12:26.938Z,5.68
2023-01-11T12:15:19.346Z,4.85
2023-01-11T12:17:49.328Z,4.20
2023-01-11T12:20:30.606Z,5.68
2023-01-11T12:23:19.554Z,4.05
2023-01-11T12:25:50.186Z,3.72
2023-01-11T12:28:29.465Z,4.32
2023-01-11T12:31:08.491Z,6.22
2023-01-11T12:33:57.562Z,6.53
2023-01-11T12:36:53.837Z,4.38
2023-01-11T12:39:47.210Z,5.45
2023-01-11T12:42:31.398Z,5.10
2023-01-11T12:45:17.016Z,5.35
2023-01-11T12:47:48.220Z,6.55
2023-01-11T12:50:22.841Z,5.97
2023-01-11T12:53:11.712Z,8.65
2023-01-11T12:55:58.008Z,8.63
2023-01-11T12:58:51.271Z,6.40
2023-01-11T13:01:59.300Z,6.88
2023-01-11T13:04:48.522Z,8.95
2023-01-11T13:07:19.395Z,6.40
2023-01-11T13:10:05.636Z,6.82
2023-01-11T13:13:10.116Z,6.28
2023-01-11T13:16:00.467Z,5.78
2023-01-11T13:19:00.192Z,5.18
2023-01-11T13:21:54.446Z,5.43
2023-01-11T13:24:29.593Z,5.50
2023-01-11T13:27:20.239Z,6.75
2023-01-11T13:29:53.365Z,5.90
2023-01-11T13:32:26.374Z,8.68
2023-01-11T13:37:50.478Z,11.18
2023-01-11T13:40:21.387Z,11.15
2023-01-11T13:42:59.561Z,9.25
2023-01-11T13:45:54.706Z,6.65
2023-01-11T13:48:43.906Z,5.95
2023-01-11T13:51:33.706Z,6.15
2023-01-11T13:54:27.105Z,6.05
2023-01-11T13:59:41.643Z,6.75
2023-01-11T14:02:30.621Z,9.57
2023-01-11T14:05:15.663Z,6.75
2023-01-11T14:08:11.092Z,6.55
2023-01-11T14:10:42.383Z,6.90
2023-01-11T14:14:10.007Z,7.80
2023-01-11T14:16:44.179Z,6.75
2023-01-11T14:19:42.990Z,7.28
2023-01-11T14:22:39.461Z,7.53
2023-01-11T14:25:35.454Z,6.75
2023-01-11T14:28:06.247Z,6.93
2023-01-11T14:30:42.248Z,8.07
2023-01-11T14:33:23.008Z,7.03
2023-01-11T14:36:03.303Z,6.68
2023-01-11T14:39:01.611Z,6.25
2023-01-11T14:41:35.863Z,6.03
2023-01-11T14:44:27.713Z,6.65
2023-01-11T14:47:04.318Z,6.65
2023-01-11T14:49:54.811Z,5.85
2023-01-11T14:52:39.112Z,6.68
2023-01-11T14:55:18.042Z,6.95
2023-01-11T14:58:03.183Z,7.05
2023-01-11T15:00:33.158Z,6.85
2023-01-11T15:03:02.956Z,7.20
2023-01-11T15:05:33.019Z,7.07
2023-01-11T15:08:23.150Z,7.22
2023-01-11T15:11:11.945Z,9.02
2023-01-11T15:14:05.343Z,7.50
2023-01-11T15:19:29.786Z,6.50
2023-01-11T15:22:01.068Z,6.40
2023-01-11T15:24:35.231Z,7.43
2023-01-11T15:27:04.905Z,7.43
2023-01-11T15:29:42.477Z,8.15
2023-01-11T15:32:29.844Z,7.95
2023-01-11T15:35:31.555Z,8.40
2023-01-11T15:38:13.017Z,8.75
2023-01-11T15:40:44.850Z,8.27
2023-01-11T15:43:37.184Z,9.38
2023-01-11T15:46:38.106Z,9.20
2023-01-11T15:49:35.712Z,9.13
2023-01-11T15:52:51.369Z,9.10
2023-01-11T15:55:54.951Z,8.88
2023-01-11T15:58:24.791Z,8.88
2023-01-11T16:00:56.495Z,9.02
2023-01-11T16:04:00.802Z,8.90
2023-01-11T16:06:54.126Z,8.60
2023-01-11T16:09:25.892Z,8.30
2023-01-11T16:12:14.690Z,9.10
2023-01-11T16:15:03.723Z,9.48
2023-01-11T16:17:32.843Z,8.45
2023-01-11T16:20:22.842Z,9.35
2023-01-11T16:22:56.123Z,9.25
2023-01-11T16:25:30.419Z,8.95
2023-01-11T16:28:02.835Z,9.20
2023-01-11T16:30:32.970Z,9.13
2023-01-11T16:33:23.317Z,11.10
2023-01-11T16:36:03.909Z,10.00
2023-01-11T16:38:38.237Z,10.00
2023-01-11T16:41:09.907Z,10.82
2023-01-11T16:43:47.549Z,9.57
2023-01-11T16:46:58.434Z,10.35
2023-01-11T16:49:27.156Z,9.65
2023-01-11T16:51:58.525Z,9.25
2023-01-11T16:54:32.542Z,10.07
2023-01-11T16:57:02.852Z,10.57
2023-01-11T17:03:29.589Z,10.98
2023-01-11T17:06:02.371Z,10.50
2023-01-11T17:08:37.293Z,10.85
2023-01-11T17:11:21.186Z,10.23
2023-01-11T17:14:02.925Z,10.88
2023-01-11T17:16:54.106Z,12.23
2023-01-11T17:19:27.672Z,11.23
2023-01-11T17:22:05.482Z,10.98
2023-01-11T17:24:42.402Z,11.63
2023-01-11T17:27:23.990Z,12.98
2023-01-11T17:29:56.264Z,12.63
2023-01-11T17:32:38.257Z,12.23
2023-01-11T17:35:16.833Z,10.75
2023-01-11T17:37:48.989Z,11.80
2023-01-11T17:40:34.988Z,9.33
2023-01-11T17:43:28.854Z,10.43
2023-01-11T17:45:59.886Z,10.57
2023-01-11T17:48:30.228Z,9.73
2023-01-11T17:51:01.605Z,8.32
2023-01-11T17:53:35.083Z,7.85
2023-01-11T17:56:06.203Z,8.63
2023-01-11T17:58:36.505Z,8.63
2023-01-11T18:01:08.902Z,8.80
2023-01-11T18:03:51.464Z,7.28
2023-01-11T18:06:28.267Z,12.30
2023-01-11T18:08:58.815Z,19.20
2023-01-11T18:11:34.623Z,10.95
2023-01-11T18:14:06.998Z,8.85
2023-01-11T18:16:35.926Z,11.82
2023-01-11T18:19:25.618Z,8.50
2023-01-11T18:21:56.024Z,9.27
2023-01-11T18:24:34.108Z,9.57
2023-01-11T18:27:18.983Z,8.50
2023-01-11T18:29:49.420Z,8.32
2023-01-11T18:32:19.682Z,9.20
2023-01-11T18:34:51.626Z,8.43
2023-01-11T18:37:21.106Z,7.68
2023-01-11T18:39:51.377Z,7.38
2023-01-11T18:42:25.328Z,7.63
2023-01-11T18:44:54.115Z,8.27
2023-01-11T18:47:25.460Z,8.15
2023-01-11T18:49:54.755Z,7.75
2023-01-11T18:52:28.568Z,7.03
2023-01-11T18:54:58.185Z,6.68
2023-01-11T18:57:27.330Z,5.88
2023-01-11T18:59:57.129Z,7.40
2023-01-11T19:02:31.731Z,7.00
2023-01-11T19:05:00.591Z,5.72
2023-01-11T19:07:29.493Z,6.00
2023-01-11T19:10:00.274Z,7.60
2023-01-11T19:12:29.143Z,6.22
2023-01-11T19:14:58.001Z,6.68
2023-01-11T19:17:29.712Z,5.97
2023-01-11T19:19:58.531Z,5.82
2023-01-11T19:22:27.341Z,6.53
2023-01-11T19:24:56.585Z,6.45
2023-01-11T19:27:25.487Z,6.70
2023-01-11T19:29:54.989Z,6.63
2023-01-11T19:32:26.240Z,7.50
2023-01-11T19:34:59.037Z,7.03
2023-01-11T19:37:29.303Z,8.73
2023-01-11T19:39:58.382Z,9.27
2023-01-11T19:42:27.298Z,7.20
2023-01-11T19:44:56.176Z,9.13
2023-01-11T19:47:24.952Z,11.13
2023-01-11T19:49:57.416Z,9.63
2023-01-11T19:52:26.731Z,12.05
2023-01-11T19:54:56.855Z,10.35
2023-01-11T19:57:25.571Z,8.68
2023-01-11T19:59:54.379Z,9.20
2023-01-11T20:02:23.479Z,9.32
2023-01-11T20:04:52.392Z,8.05
2023-01-11T20:07:21.915Z,8.68
2023-01-11T20:09:50.693Z,7.95
2023-01-11T20:12:19.407Z,9.18
2023-01-11T20:14:48.123Z,9.43
2023-01-11T20:17:21.957Z,9.10
2023-01-11T20:19:55.481Z,11.77
2023-01-11T20:22:25.478Z,8.70
2023-01-11T20:24:54.201Z,9.07
2023-01-11T20:27:22.980Z,11.13
2023-01-11T20:29:51.976Z,9.15
2023-01-11T20:32:41.122Z,9.82
2023-01-11T20:35:11.402Z,9.23
2023-01-11T20:37:40.093Z,9.20
2023-01-11T20:40:09.525Z,8.40
2023-01-11T20:42:38.382Z,8.25
2023-01-11T20:45:07.626Z,8.55
2023-01-11T20:47:36.363Z,7.22
2023-01-11T20:50:05.720Z,8.90
2023-01-11T20:52:34.520Z,9.63
2023-01-11T20:55:03.221Z,7.05
2023-01-11T20:57:32.154Z,6.40
2023-01-11T21:00:00.887Z,7.30
2023-01-11T21:02:29.621Z,6.82
2023-01-11T21:04:58.446Z,6.72
2023-01-11T21:07:27.051Z,6.60
2023-01-11T21:09:55.693Z,7.65
2023-01-11T21:12:24.674Z,6.85
2023-01-11T21:14:53.333Z,7.60
2023-01-11T21:17:22.041Z,8.30
2023-01-11T21:19:51.518Z,8.27
2023-01-11T21:22:20.441Z,9.43
2023-01-11T21:24:49.484Z,8.10
2023-01-11T21:27:18.253Z,7.97
2023-01-11T21:29:47.020Z,8.13
2023-01-11T21:32:15.760Z,7.68
2023-01-11T21:34:44.443Z,9.55
2023-01-11T21:37:13.139Z,7.65
2023-01-11T21:39:41.811Z,9.73
2023-01-11T21:42:10.676Z,7.80
2023-01-11T21:44:39.417Z,7.63
2023-01-11T21:47:08.611Z,7.68
2023-01-11T21:49:37.355Z,8.82
2023-01-11T21:52:06.120Z,8.38
2023-01-11T21:54:34.811Z,8.45
2023-01-11T21:57:03.641Z,7.78
2023-01-11T21:59:36.755Z,9.18
2023-01-11T22:02:05.456Z,10.70
2023-01-11T22:04:34.194Z,11.10
2023-01-11T22:07:02.874Z,11.57
2023-01-11T22:09:33.051Z,11.60
2023-01-11T22:12:01.833Z,11.30
2023-01-11T22:14:31.593Z,12.65
2023-01-11T22:17:01.126Z,13.18
2023-01-11T22:19:30.780Z,15.77
2023-01-11T22:21:59.490Z,15.45
2023-01-11T22:24:28.289Z,13.98
2023-01-11T22:26:56.959Z,15.02
2023-01-11T22:29:25.719Z,16.50
2023-01-11T22:31:57.243Z,19.65
2023-01-11T22:34:26.208Z,19.92
2023-01-11T22:36:55.359Z,21.13
2023-01-11T22:39:25.329Z,22.13
2023-01-11T22:41:54.111Z,22.33
2023-01-11T22:44:22.906Z,21.63
2023-01-11T22:46:51.738Z,21.67
2023-01-11T22:49:20.688Z,24.80
2023-01-11T22:51:49.716Z,24.60
2023-01-11T22:54:18.829Z,21.42
2023-01-11T22:56:47.606Z,27.48
2023-01-11T22:59:16.368Z,27.45
2023-01-11T23:01:45.181Z,29.52
2023-01-11T23:04:16.278Z,27.27
2023-01-11T23:06:45.397Z,27.52
2023-01-11T23:09:17.207Z,28.08
2023-01-11T23:12:05.950Z,29.17
2023-01-11T23:14:34.891Z,38.72
2023-01-11T23:17:08.737Z,31.10
2023-01-11T23:19:39.829Z,28.92
2023-01-11T23:22:10.296Z,24.50
2023-01-11T23:24:39.985Z,28.38
2023-01-11T23:27:08.703Z,29.67
2023-01-11T23:29:37.538Z,28.63
2023-01-11T23:32:06.573Z,31.27
2023-01-11T23:34:35.304Z,29.65
2023-01-11T23:37:03.984Z,33.92
2023-01-11T23:39:33.840Z,33.08
2023-01-11T23:42:22.123Z,31.70
2023-01-11T23:44:50.889Z,30.88
2023-01-11T23:47:22.797Z,27.50
2023-01-11T23:49:53.740Z,28.55
2023-01-11T23:52:25.471Z,28.73
2023-01-11T23:54:54.752Z,27.70
2023-01-11T23:57:25.366Z,27.75
2023-01-11T23:59:54.233Z,28.48
